THY1145 LTFM-HLLB
Flight info
| Callsign | THY1145 |
|---|---|
| Flight time | N/A |
| Altitude | 39000 |
| Route | IVGUS UY226 BIG UG80 IMR UR32 REDRA DCT RIGRO UP32 RIPLI DCT MONUV UP32 ETILI DCT NEVIK DCT RASNO DCT REDFI REDFI1D |
| Aircraft | B738/M-SDE2E3FGHIRWXY/LB1 |
Departure
| Time | 2026-05-04 10:16 |
|---|---|
| Airport | İstanbul Airport (LTFM) |
Arrival
| Time | N/A |
|---|---|
| Airport | Benina International Airport (HLLB) |
| Time | Latitude | Longitude | Altitude | Speed | Heading |
|---|---|---|---|---|---|
| 2026-05-04 09:46 | 41.26550 | 28.73789 | 333 ft | 0 kts | 269° |
| 2026-05-04 10:04 | 41.26546 | 28.73841 | 331 ft | 4 kts | 291° |
| 2026-05-04 10:04 | 41.26533 | 28.73872 | 332 ft | 4 kts | 317° |
| 2026-05-04 10:04 | 41.26517 | 28.73886 | 331 ft | 0 kts | 344° |
| 2026-05-04 10:06 | 41.26526 | 28.73882 | 329 ft | 4 kts | 347° |
| 2026-05-04 10:06 | 41.26579 | 28.73879 | 329 ft | 10 kts | 359° |
| 2026-05-04 10:08 | 41.26962 | 28.73683 | 333 ft | 16 kts | 270° |
| 2026-05-04 10:08 | 41.26960 | 28.73516 | 333 ft | 20 kts | 269° |
| 2026-05-04 10:08 | 41.26957 | 28.73323 | 332 ft | 20 kts | 269° |
| 2026-05-04 10:08 | 41.26954 | 28.73161 | 333 ft | 16 kts | 269° |
| 2026-05-04 10:09 | 41.26953 | 28.73079 | 333 ft | 8 kts | 270° |
| 2026-05-04 10:09 | 41.26944 | 28.73011 | 333 ft | 8 kts | 236° |
| 2026-05-04 10:09 | 41.26901 | 28.72988 | 332 ft | 0 kts | 179° |
| 2026-05-04 10:11 | 41.26898 | 28.72988 | 333 ft | 1 kts | 179° |
| 2026-05-04 10:11 | 41.26866 | 28.72988 | 333 ft | 10 kts | 179° |
| 2026-05-04 10:11 | 41.26764 | 28.72991 | 331 ft | 18 kts | 178° |
| 2026-05-04 10:12 | 41.26615 | 28.72995 | 332 ft | 23 kts | 179° |
| 2026-05-04 10:12 | 41.26454 | 28.72998 | 331 ft | 23 kts | 179° |
| 2026-05-04 10:12 | 41.26303 | 28.73002 | 329 ft | 19 kts | 179° |
| 2026-05-04 10:12 | 41.26227 | 28.72987 | 333 ft | 10 kts | 229° |
| 2026-05-04 10:13 | 41.26214 | 28.72903 | 333 ft | 9 kts | 270° |
| 2026-05-04 10:13 | 41.26213 | 28.72811 | 333 ft | 11 kts | 269° |
| 2026-05-04 10:13 | 41.26213 | 28.72674 | 333 ft | 17 kts | 271° |
| 2026-05-04 10:13 | 41.26215 | 28.72540 | 333 ft | 11 kts | 291° |
| 2026-05-04 10:14 | 41.26279 | 28.72524 | 329 ft | 10 kts | 358° |
| 2026-05-04 10:14 | 41.26588 | 28.72517 | 331 ft | 87 kts | 359° |
| 2026-05-04 10:16 | 41.34619 | 28.72514 | 4269 ft | 234 kts | 354° |
| 2026-05-04 10:16 | 41.36175 | 28.71799 | 5019 ft | 243 kts | 329° |
| 2026-05-04 10:16 | 41.37405 | 28.70260 | 6017 ft | 247 kts | 308° |
| 2026-05-04 10:16 | 41.38110 | 28.68149 | 6912 ft | 258 kts | 285° |
| 2026-05-04 10:17 | 41.38200 | 28.65696 | 7642 ft | 271 kts | 275° |
| 2026-05-04 10:17 | 41.38159 | 28.63148 | 8400 ft | 279 kts | 274° |
| 2026-05-04 10:19 | 41.26117 | 28.55265 | 12288 ft | 389 kts | 179° |
| 2026-05-04 10:19 | 41.23430 | 28.54743 | 12974 ft | 394 kts | 201° |
| 2026-05-04 10:19 | 41.20866 | 28.53413 | 13695 ft | 399 kts | 204° |
| 2026-05-04 10:19 | 41.18267 | 28.52040 | 14349 ft | 404 kts | 203° |
| 2026-05-04 10:20 | 41.15645 | 28.50685 | 15096 ft | 405 kts | 202° |
| 2026-05-04 10:20 | 41.13008 | 28.49353 | 15853 ft | 406 kts | 201° |
| 2026-05-04 10:20 | 41.10354 | 28.48031 | 16555 ft | 409 kts | 201° |
| 2026-05-04 10:20 | 41.07673 | 28.46701 | 17214 ft | 413 kts | 200° |
| 2026-05-04 10:21 | 41.04949 | 28.45452 | 17870 ft | 416 kts | 195° |
| 2026-05-04 10:21 | 41.02135 | 28.44551 | 18532 ft | 417 kts | 191° |
| 2026-05-04 10:21 | 40.99280 | 28.43767 | 19093 ft | 421 kts | 191° |
| 2026-05-04 10:21 | 40.96409 | 28.42945 | 19631 ft | 424 kts | 192° |
| 2026-05-04 10:22 | 40.90710 | 28.40740 | 20667 ft | 433 kts | 211° |
| 2026-05-04 10:22 | 40.88381 | 28.38235 | 21207 ft | 431 kts | 231° |
| 2026-05-04 10:22 | 40.86718 | 28.34975 | 21789 ft | 427 kts | 248° |
| 2026-05-04 10:23 | 40.85815 | 28.31288 | 22322 ft | 422 kts | 263° |
| 2026-05-04 10:23 | 40.85286 | 28.27456 | 22815 ft | 426 kts | 264° |
| 2026-05-04 10:25 | 40.81204 | 27.99763 | 25647 ft | 450 kts | 261° |
| 2026-05-04 10:25 | 40.80593 | 27.95745 | 25978 ft | 454 kts | 261° |
| 2026-05-04 10:25 | 40.79966 | 27.91640 | 26309 ft | 458 kts | 261° |
| 2026-05-04 10:25 | 40.79370 | 27.87491 | 26637 ft | 460 kts | 265° |
| 2026-05-04 10:26 | 40.79256 | 27.83281 | 26966 ft | 460 kts | 275° |
| 2026-05-04 10:26 | 40.79106 | 27.79045 | 27263 ft | 468 kts | 260° |
| 2026-05-04 10:26 | 40.77908 | 27.75025 | 27551 ft | 476 kts | 238° |
| 2026-05-04 10:26 | 40.75805 | 27.71655 | 27914 ft | 478 kts | 221° |
| 2026-05-04 10:27 | 40.73072 | 27.69189 | 28255 ft | 477 kts | 207° |
| 2026-05-04 10:27 | 40.70131 | 27.67134 | 28595 ft | 479 kts | 205° |
| 2026-05-04 10:27 | 40.67161 | 27.65102 | 28877 ft | 483 kts | 205° |
| 2026-05-04 10:27 | 40.64183 | 27.63033 | 29174 ft | 486 kts | 206° |
| 2026-05-04 10:28 | 40.61198 | 27.60910 | 29507 ft | 488 kts | 206° |
| 2026-05-04 10:28 | 40.58212 | 27.58758 | 29828 ft | 490 kts | 206° |
| 2026-05-04 10:28 | 40.55219 | 27.56584 | 30093 ft | 493 kts | 207° |
| 2026-05-04 10:28 | 40.52221 | 27.54357 | 30331 ft | 496 kts | 207° |
| 2026-05-04 10:29 | 40.49223 | 27.52107 | 30654 ft | 496 kts | 207° |
| 2026-05-04 10:29 | 40.46241 | 27.49867 | 31097 ft | 492 kts | 207° |
| 2026-05-04 10:29 | 40.43283 | 27.47651 | 31603 ft | 487 kts | 207° |
| 2026-05-04 10:29 | 40.40358 | 27.45469 | 32200 ft | 480 kts | 206° |
| 2026-05-04 10:30 | 40.37468 | 27.43321 | 32699 ft | 476 kts | 206° |
| 2026-05-04 10:30 | 40.34590 | 27.41187 | 33015 ft | 476 kts | 206° |
| 2026-05-04 10:30 | 40.31706 | 27.39052 | 33263 ft | 477 kts | 205° |
| 2026-05-04 10:30 | 40.28721 | 27.37201 | 33570 ft | 472 kts | 197° |
| 2026-05-04 10:31 | 40.25611 | 27.35962 | 33966 ft | 464 kts | 187° |
| 2026-05-04 10:31 | 40.22437 | 27.35307 | 34218 ft | 462 kts | 184° |
| 2026-05-04 10:32 | 40.03151 | 27.31803 | 35236 ft | 472 kts | 186° |
| 2026-05-04 10:33 | 39.99889 | 27.31184 | 35337 ft | 475 kts | 186° |
| 2026-05-04 10:33 | 39.96619 | 27.30570 | 35591 ft | 473 kts | 186° |
| 2026-05-04 10:33 | 39.93363 | 27.29989 | 35879 ft | 472 kts | 186° |
| 2026-05-04 10:33 | 39.90115 | 27.29417 | 36079 ft | 472 kts | 186° |
| 2026-05-04 10:34 | 39.86857 | 27.28805 | 36243 ft | 473 kts | 187° |
| 2026-05-04 10:34 | 39.83595 | 27.28170 | 36445 ft | 474 kts | 187° |
| 2026-05-04 10:34 | 39.80340 | 27.27540 | 36649 ft | 473 kts | 187° |
| 2026-05-04 10:34 | 39.77079 | 27.26957 | 36858 ft | 473 kts | 187° |
| 2026-05-04 10:35 | 39.73806 | 27.26407 | 37009 ft | 475 kts | 187° |
| 2026-05-04 10:35 | 39.70523 | 27.25866 | 37130 ft | 477 kts | 187° |
| 2026-05-04 10:35 | 39.67238 | 27.25323 | 37395 ft | 475 kts | 187° |
| 2026-05-04 10:35 | 39.63960 | 27.24776 | 37594 ft | 475 kts | 187° |
| 2026-05-04 10:36 | 39.60690 | 27.24224 | 37794 ft | 475 kts | 188° |
| 2026-05-04 10:36 | 39.57408 | 27.23669 | 37964 ft | 475 kts | 188° |
| 2026-05-04 10:36 | 39.54174 | 27.23122 | 38095 ft | 476 kts | 188° |
| 2026-05-04 10:36 | 39.50885 | 27.22566 | 38291 ft | 475 kts | 188° |
| 2026-05-04 10:37 | 39.47612 | 27.22004 | 38560 ft | 473 kts | 188° |
| 2026-05-04 10:37 | 39.44359 | 27.21416 | 38751 ft | 473 kts | 189° |
| 2026-05-04 10:37 | 39.41096 | 27.20812 | 38883 ft | 473 kts | 189° |
| 2026-05-04 10:37 | 39.37852 | 27.20210 | 39060 ft | 471 kts | 189° |
| 2026-05-04 10:39 | 39.14837 | 27.16006 | 39066 ft | 482 kts | 189° |
| 2026-05-04 10:40 | 39.08188 | 27.14800 | 39061 ft | 482 kts | 189° |
| 2026-05-04 10:40 | 39.01597 | 27.13608 | 39051 ft | 474 kts | 189° |
| 2026-05-04 10:41 | 38.95120 | 27.12422 | 39004 ft | 469 kts | 189° |
| 2026-05-04 10:41 | 38.91870 | 27.11815 | 38755 ft | 475 kts | 189° |
| 2026-05-04 10:41 | 38.88588 | 27.11201 | 38515 ft | 478 kts | 189° |
| 2026-05-04 10:41 | 38.85299 | 27.10586 | 38244 ft | 477 kts | 189° |
| 2026-05-04 10:42 | 38.82018 | 27.09975 | 38084 ft | 476 kts | 189° |
| 2026-05-04 10:42 | 38.75486 | 27.08763 | 38055 ft | 473 kts | 189° |
| 2026-05-04 10:43 | 38.68961 | 27.07555 | 38051 ft | 475 kts | 189° |
| 2026-05-04 10:45 | 38.42697 | 27.02716 | 38049 ft | 478 kts | 190° |
| 2026-05-04 10:45 | 38.36114 | 27.01476 | 38039 ft | 477 kts | 194° |
| 2026-05-04 10:45 | 38.32981 | 27.00186 | 38053 ft | 472 kts | 208° |
| 2026-05-04 10:46 | 38.30174 | 26.98079 | 38044 ft | 467 kts | 220° |
| 2026-05-04 10:46 | 38.27795 | 26.95328 | 38058 ft | 459 kts | 232° |
| 2026-05-04 10:46 | 38.25714 | 26.92250 | 38060 ft | 458 kts | 232° |
| 2026-05-04 10:47 | 38.21577 | 26.86101 | 38050 ft | 457 kts | 232° |
| 2026-05-04 10:47 | 38.17414 | 26.80022 | 38069 ft | 455 kts | 232° |
| 2026-05-04 10:49 | 38.00685 | 26.55962 | 38080 ft | 454 kts | 232° |
| 2026-05-04 10:50 | 37.96581 | 26.49887 | 38094 ft | 452 kts | 236° |
| 2026-05-04 10:52 | 37.82045 | 26.25460 | 38098 ft | 455 kts | 237° |
| 2026-05-04 10:52 | 37.78206 | 26.19094 | 38110 ft | 455 kts | 237° |
| 2026-05-04 10:54 | 37.62847 | 25.93727 | 38114 ft | 458 kts | 237° |
| 2026-05-04 10:56 | 37.47332 | 25.68303 | 38133 ft | 457 kts | 237° |
| 2026-05-04 10:57 | 37.43445 | 25.61971 | 38122 ft | 457 kts | 237° |
| 2026-05-04 10:57 | 37.39553 | 25.55651 | 38150 ft | 457 kts | 237° |
| 2026-05-04 10:58 | 37.35658 | 25.49337 | 38123 ft | 457 kts | 237° |
| 2026-05-04 10:58 | 37.31762 | 25.43029 | 38128 ft | 457 kts | 237° |
| 2026-05-04 10:59 | 37.27863 | 25.36727 | 38130 ft | 457 kts | 237° |
| 2026-05-04 10:59 | 37.23998 | 25.30399 | 38138 ft | 456 kts | 238° |
| 2026-05-04 11:00 | 37.20172 | 25.24056 | 38153 ft | 455 kts | 238° |
| 2026-05-04 11:02 | 37.04965 | 24.99017 | 38140 ft | 448 kts | 239° |
| 2026-05-04 11:05 | 36.80520 | 24.59193 | 38170 ft | 443 kts | 239° |